This is the latest recevied weather packets stored in our database for station/object K4CRS-13. If no packets are shown the sender has not sent any weather packets the latest 10 day(s).
| Time | Temp. | Humidity | Pressure | Rain* | Wind** | Luminosity | Snow |
|---|---|---|---|---|---|---|---|
| 1777644804 | 12.78° C | 82% | 1050.8 hPa | 0 mm | - | 140 W/m² | - |
| 1777644502 | 12.22° C | 82% | 1050.7 hPa | 0 mm | - | 134 W/m² | - |
| 1777644198 | 12.22° C | 82% | 1050.7 hPa | 0 mm | - | 129 W/m² | - |
| 1777643894 | 12.22° C | 82% | 1051.1 hPa | 0 mm | - | 112 W/m² | - |
| 1777643593 | 11.67° C | 83% | 1050.9 hPa | 0 mm | - | 110 W/m² | - |
| 1777643289 | 11.67° C | 83% | 1050.8 hPa | 0 mm | - | 120 W/m² | - |
| 1777642985 | 11.67° C | 83% | 1050.8 hPa | 0 mm | - | 131 W/m² | - |
| 1777642682 | 11.67° C | 84% | 1051 hPa | 0 mm | - | 117 W/m² | - |
| 1777642379 | 11.67° C | 84% | 1050.9 hPa | 0 mm | - | 104 W/m² | - |
| 1777642075 | 11.67° C | 84% | 1050.8 hPa | 0 mm | - | 97 W/m² | - |
| 1777641772 | 11.11° C | 84% | 1050.8 hPa | 0 mm | - | 99 W/m² | - |
| 1777641472 | 11.11° C | 85% | 1050.6 hPa | 0 mm | - | 94 W/m² | - |
| 1777641167 | 11.11° C | 85% | 1050.5 hPa | 0 mm | - | 84 W/m² | - |
| 1777640863 | 11.11° C | 85% | 1050.5 hPa | 0 mm | - | 73 W/m² | - |
| 1777640561 | 11.11° C | 84% | 1050.4 hPa | 0 mm | - | 79 W/m² | - |
| 1777640257 | 11.11° C | 84% | 1050.4 hPa | 0 mm | - | 70 W/m² | - |
| 1777639953 | 11.11° C | 83% | 1050.5 hPa | 0 mm | - | 55 W/m² | - |
| 1777639651 | 11.11° C | 83% | 1050.3 hPa | 0 mm | - | 55 W/m² | - |
| 1777639349 | 11.11° C | 83% | 1050.1 hPa | 0 mm | - | 62 W/m² | - |
| 1777639044 | 11.11° C | 83% | 1049.9 hPa | 0 mm | - | 94 W/m² | - |
| 1777638741 | 11.11° C | 83% | 1049.9 hPa | 0 mm | - | 83 W/m² | - |
| 1777638436 | 11.11° C | 83% | 1049.8 hPa | 0 mm | - | 84 W/m² | - |
| 1777638134 | 11.11° C | 83% | 1049.6 hPa | 0 mm | - | 90 W/m² | - |
| 1777637829 | 10.56° C | 84% | 1049.7 hPa | 0 mm | - | 85 W/m² | - |
| 1777637526 | 10.56° C | 84% | 1049.9 hPa | 0 mm | - | 75 W/m² | - |
* Rain latest hour (hover to see other rain measurements)
** Current wind speed in m/s (hover to see current wind gust speed)